Het weer levert geen direct gevaar op.    Er zijn geen waarschuwingen afgegeven.


Onweer radar Meer informatie blitzortung!


Regen radar Meer informatie rain snow radar


Bezoek onze andere website:

Template documentation
and downloads

And another site



Weather Underground Historische gegevens

Dagelijkse Samenvatting februari 23, 2018 Eenheden:  Metrisch    Engels   Beide
« Vorige Dag
Volgende Dag »
Dagelijkse Wekelijkse Maandelijkse Jaarlijkse Aangepaste
  Huidig: Hoog: Laag: Gemiddeld:
Temperatuur: -18.8 °C -17.8 °C -18.8 °C -18.4 °C
Dauwpunt: -19.4 °C -17.8 °C -19.4 °C -19.1 °C
Vochtigheid: 93 % Humidity % 88 % 90 %
Wind snelheid: 6 km/h 0 km/h 6 km/h 8.7 km/h
Windvlaag: 6 km/h 0 km/h - -
Wind:NE - - NE
Luchtdruk: 34682.8 hPa 0 hPa 34682.8 hPa -
Neerslag: 0 mm      
Historical Graphs
 
 
Tabel voor februari 23, 2018
Tijd Temperatuur Dauwpunt Luchtdruk Wind Wind snelheid Windvlaag Vochtigheid Regenval per uur
-17.8 °C -17.8 °C 0 hPa Calm     Humidity % 0 mm
00:03 -18 °C -18.9 °C 34703.1 hPa ENE 7.7 km/h 7.7 km/h 88 % 0 mm
00:08 -18 °C -19 °C 34703.1 hPa NE 9 km/h 9 km/h 88 % 0 mm
00:13 -18.1 °C -18.9 °C 34703.1 hPa ENE 9 km/h 9 km/h 89 % 0 mm
00:18 -18.1 °C -18.9 °C 34703.1 hPa ENE 9 km/h 9 km/h 89 % 0 mm
00:23 -18.1 °C -19 °C 34703.1 hPa NE 9 km/h 9 km/h 89 % 0 mm
00:28 -18.1 °C -18.9 °C 34703.1 hPa NE 9 km/h 9 km/h 89 % 0 mm
00:33 -18.1 °C -18.9 °C 34703.1 hPa ENE 11.9 km/h 11.9 km/h 89 % 0 mm
00:38 -18.1 °C -18.9 °C 34703.1 hPa ENE 9 km/h 9 km/h 89 % 0 mm
00:43 -18.1 °C -19 °C 34703.1 hPa ENE 9 km/h 9 km/h 89 % 0 mm
00:48 -18.1 °C -19 °C 34703.1 hPa ENE 9 km/h 9 km/h 89 % 0 mm
00:53 -18.1 °C -19 °C 34703.1 hPa ENE 9 km/h 9 km/h 89 % 0 mm
00:58 -18.1 °C -19 °C 34703.1 hPa ENE 6 km/h 6 km/h 89 % 0 mm
01:03 -18.2 °C -18.9 °C 34703.1 hPa ENE 9 km/h 9 km/h 90 % 0 mm
01:08 -18.2 °C -19.1 °C 34703.1 hPa ENE 9 km/h 9 km/h 89 % 0 mm
01:13 -18.2 °C -19.1 °C 34703.1 hPa ENE 11.9 km/h 11.9 km/h 89 % 0 mm
01:18 -18.2 °C -19 °C 34703.1 hPa ENE 9 km/h 9 km/h 90 % 0 mm
01:23 -18.2 °C -19.1 °C 34703.1 hPa ENE 7.7 km/h 7.7 km/h 90 % 0 mm
01:28 -18.3 °C -19.1 °C 34703.1 hPa NE 9 km/h 9 km/h 90 % 0 mm
01:33 -18.3 °C -19.1 °C 34693 hPa NE 6 km/h 6 km/h 90 % 0 mm
01:38 -18.3 °C -19.1 °C 34693 hPa NNE 11.9 km/h 11.9 km/h 90 % 0 mm
01:43 -18.3 °C -19.1 °C 34693 hPa NNE 9 km/h 9 km/h 90 % 0 mm
01:48 -18.3 °C -19.1 °C 34693 hPa NE 9 km/h 9 km/h 90 % 0 mm
01:53 -18.3 °C -19.1 °C 34693 hPa NE 9 km/h 9 km/h 90 % 0 mm
01:58 -18.3 °C -19.1 °C 34693 hPa NNE 10.3 km/h 10.3 km/h 90 % 0 mm
02:03 -18.3 °C -19 °C 34693 hPa NNE 15 km/h 15 km/h 91 % 0 mm
02:08 -18.3 °C -19 °C 34693 hPa NNE 11.9 km/h 11.9 km/h 91 % 0 mm
02:13 -18.3 °C -19 °C 34693 hPa NE 9 km/h 9 km/h 91 % 0 mm
02:18 -18.3 °C -19 °C 34693 hPa NE 11.9 km/h 11.9 km/h 91 % 0 mm
02:23 -18.3 °C -19 °C 34693 hPa NE 9 km/h 9 km/h 91 % 0 mm
02:28 -18.3 °C -19 °C 34693 hPa NE 11.9 km/h 11.9 km/h 91 % 0 mm
02:33 -18.3 °C -19 °C 34693 hPa NNE 9 km/h 9 km/h 91 % 0 mm
02:38 -18.3 °C -19 °C 34693 hPa ENE 9 km/h 9 km/h 91 % 0 mm
02:43 -18.3 °C -19.1 °C 34693 hPa NE 9 km/h 9 km/h 91 % 0 mm
02:48 -18.3 °C -19.1 °C 34693 hPa NE 9 km/h 9 km/h 91 % 0 mm
02:53 -18.3 °C -19.1 °C 34693 hPa NE 9 km/h 9 km/h 91 % 0 mm
02:58 -18.4 °C -19.1 °C 34693 hPa NE 9 km/h 9 km/h 91 % 0 mm
03:03 -18.4 °C -19.1 °C 34682.8 hPa NE 9 km/h 9 km/h 91 % 0 mm
03:08 -18.4 °C -19 °C 34682.8 hPa NE 9 km/h 9 km/h 92 % 0 mm
03:13 -18.4 °C -19 °C 34682.8 hPa NE 6 km/h 6 km/h 92 % 0 mm
03:18 -18.4 °C -19 °C 34682.8 hPa NE 9 km/h 9 km/h 92 % 0 mm
03:23 -18.4 °C -19.1 °C 34682.8 hPa NE 9 km/h 9 km/h 92 % 0 mm
03:28 -18.4 °C -19.1 °C 34682.8 hPa NE 9 km/h 9 km/h 92 % 0 mm
03:33 -18.4 °C -19.1 °C 34682.8 hPa NE 9 km/h 9 km/h 92 % 0 mm
03:38 -18.5 °C -19.1 °C 34682.8 hPa NE 9 km/h 9 km/h 92 % 0 mm
03:43 -18.5 °C -19.1 °C 34682.8 hPa NE 9 km/h 9 km/h 92 % 0 mm
03:48 -18.6 °C -19.2 °C 34682.8 hPa NNE 9 km/h 9 km/h 92 % 0 mm
03:53 -18.6 °C -19.2 °C 34682.8 hPa NE 9 km/h 9 km/h 92 % 0 mm
03:58 -18.6 °C -19.2 °C 34682.8 hPa NE 11.9 km/h 11.9 km/h 92 % 0 mm
04:04 -18.6 °C -19.2 °C 34682.8 hPa NNE 9 km/h 9 km/h 92 % 0 mm
04:09 -18.7 °C -19.3 °C 34682.8 hPa NNE 10.3 km/h 10.3 km/h 92 % 0 mm
04:13 -18.7 °C -19.3 °C 34682.8 hPa NNE 9 km/h 9 km/h 92 % 0 mm
04:18 -18.7 °C -19.2 °C 34682.8 hPa NE 9 km/h 9 km/h 93 % 0 mm
04:23 -18.7 °C -19.3 °C 34682.8 hPa NE 9 km/h 9 km/h 92 % 0 mm
04:29 -18.7 °C -19.3 °C 34682.8 hPa NE 9 km/h 9 km/h 92 % 0 mm
04:34 -18.7 °C -19.2 °C 34682.8 hPa NE 9 km/h 9 km/h 93 % 0 mm
04:39 -18.7 °C -19.3 °C 34682.8 hPa NE 6 km/h 6 km/h 93 % 0 mm
04:44 -18.7 °C -19.3 °C 34682.8 hPa NE 9 km/h 9 km/h 93 % 0 mm
04:49 -18.7 °C -19.3 °C 34682.8 hPa NE 6 km/h 6 km/h 93 % 0 mm
04:54 -18.8 °C -19.3 °C 34682.8 hPa NE 6 km/h 6 km/h 93 % 0 mm
04:59 -18.8 °C -19.3 °C 34682.8 hPa NE 6 km/h 6 km/h 93 % 0 mm
05:04 -18.8 °C -19.3 °C 34682.8 hPa NE 6 km/h 6 km/h 93 % 0 mm
05:09 -18.8 °C -19.4 °C 34682.8 hPa NE 6 km/h 6 km/h 93 % 0 mm
05:14 -18.8 °C -19.4 °C 34682.8 hPa NE 6 km/h 6 km/h 93 % 0 mm
05:19 -18.8 °C -19.4 °C 34682.8 hPa NE 6 km/h 6 km/h 93 % 0 mm
05:24 -18.8 °C -19.4 °C 34682.8 hPa NE 6 km/h 6 km/h 93 % 0 mm
Heemskerk-Beijerlust
Gegevens verzameld door Weather Underground - 1.75 mb

Script ontwikkeld door  Jim McMurry - jmcmurry@mwt.net Aangepast voor de template door  Wim van der Kuil - Leuven-Template.eu

U vindt ons ook hier:

Het Weer Aktueel

European Weather Network

Weather Underground

Benelux Weer Netwerk

Citizen Weather Observer Program (CWOP)

Apparatuur in gebruik:

Weerstation
Davis VP2

Weerprogramma
Weather Display

Weercomputer
My Computer

Webleverancier
WeservIT

Davis VP2

Weather Display

My Computer

WeservIT